Time;durP1;ratioP1;P1;durP2;ratioP2;P2;SDS_P1;SDS_P2;PMS_P1;PMS_P2;Temp;Humidity;BMP_temperature;BMP_pressure;BME280_temperature;BME280_humidity;BME280_pressure;Samples;Min_cycle;Max_cycle;Signal;HPM_P1;HPM_P2
2022/10/01 00:01:12;;;;;;;25.75;15.70;;;;;;;13.08;88.67;99209.31;5092643;28;20036;-58
2022/10/01 00:03:38;;;;;;;27.25;15.13;;;;;;;13.09;88.73;99196.84;5091307;28;20048;-58
2022/10/01 00:06:13;;;;;;;25.92;14.98;;;;;;;13.12;88.57;99199.00;5091296;28;20036;-58
2022/10/01 00:08:40;;;;;;;25.75;14.85;;;;;;;13.11;88.62;99189.38;5092463;28;20109;-58
2022/10/01 00:11:08;;;;;;;26.73;15.55;;;;;;;13.07;88.66;99194.44;5061173;28;20501;-59
2022/10/01 00:13:34;;;;;;;25.33;15.38;;;;;;;13.09;88.53;99200.31;5072065;28;20133;-58
2022/10/01 00:16:03;;;;;;;29.73;14.77;;;;;;;13.04;87.94;99196.81;5072310;28;20051;-58
2022/10/01 00:18:29;;;;;;;27.17;16.02;;;;;;;13.02;88.57;99196.25;5054109;28;20452;-58
2022/10/01 00:20:55;;;;;;;27.95;15.48;;;;;;;13.02;88.73;99196.25;5071965;28;20052;-56
2022/10/01 00:23:21;;;;;;;29.30;15.93;;;;;;;13.05;88.60;99198.41;5071834;28;20527;-59
2022/10/01 00:25:48;;;;;;;27.35;15.93;;;;;;;13.05;88.87;99206.38;5070655;28;20044;-59
2022/10/01 00:28:15;;;;;;;26.15;14.40;;;;;;;13.05;88.12;99209.06;5072313;28;20048;-58
2022/10/01 00:30:47;;;;;;;26.20;15.43;;;;;;;13.03;88.81;99217.31;5071786;28;20051;-60
2022/10/01 00:33:12;;;;;;;25.75;14.32;;;;;;;13.01;88.42;99202.66;5071701;28;20036;-59
2022/10/01 00:35:38;;;;;;;26.17;14.20;;;;;;;12.98;88.38;99201.31;5071235;28;20048;-61
2022/10/01 00:38:04;;;;;;;24.92;13.82;;;;;;;12.90;88.85;99199.91;5071822;28;20108;-57
2022/10/01 00:40:30;;;;;;;25.05;13.50;;;;;;;12.92;88.17;99199.69;5071906;28;20040;-58
2022/10/01 00:42:56;;;;;;;26.90;15.05;;;;;;;12.85;88.52;99193.75;5075062;28;20135;-58
2022/10/01 00:45:21;;;;;;;25.02;14.38;;;;;;;12.83;88.60;99190.56;5092128;28;20128;-59
2022/10/01 00:47:53;;;;;;;25.52;13.20;;;;;;;12.86;88.52;99196.19;5092000;28;20130;-59
2022/10/01 00:50:29;;;;;;;24.35;13.77;;;;;;;12.86;88.44;99190.06;5090777;28;20066;-59
2022/10/01 00:53:00;;;;;;;25.92;14.60;;;;;;;12.81;88.60;99188.16;5092187;28;20051;-59
2022/10/01 00:55:33;;;;;;;23.27;14.32;;;;;;;12.84;88.63;99192.97;5091980;28;20468;-58
2022/10/01 00:57:59;;;;;;;24.95;14.95;;;;;;;12.81;89.03;99193.47;5090631;28;20067;-58
2022/10/01 01:00:25;;;;;;;24.33;14.57;;;;;;;12.74;88.79;99187.59;5091426;28;20050;-59
2022/10/01 01:02:51;;;;;;;22.48;12.93;;;;;;;12.77;88.88;99199.59;5090104;28;20134;-58
2022/10/01 01:05:17;;;;;;;26.08;13.88;;;;;;;12.71;88.66;99191.56;5091519;28;20121;-58
2022/10/01 01:07:46;;;;;;;23.83;14.60;;;;;;;12.68;89.28;99186.75;5091649;28;20043;-58
2022/10/01 01:10:17;;;;;;;23.27;14.52;;;;;;;12.67;89.48;99189.66;5090287;28;20081;-57
2022/10/01 01:12:44;;;;;;;22.33;13.75;;;;;;;12.71;89.74;99190.78;5090339;28;20044;-59
2022/10/01 01:15:21;;;;;;;21.73;12.90;;;;;;;12.70;89.47;99191.81;5091411;28;20090;-59
2022/10/01 01:17:54;;;;;;;27.10;13.75;;;;;;;12.69;89.78;99185.69;5091784;28;20109;-57
2022/10/01 01:20:29;;;;;;;24.23;13.77;;;;;;;12.68;89.90;99186.75;5090346;28;20075;-59
2022/10/01 01:23:28;;;;;;;29.15;15.15;;;;;;;12.67;89.70;99179.03;5091667;28;20075;-58
2022/10/01 01:26:18;;;;;;;26.95;14.77;;;;;;;12.65;89.69;99187.28;5073669;28;20052;-59
2022/10/01 01:28:47;;;;;;;24.98;14.93;;;;;;;12.68;89.78;99186.75;5091550;28;20051;-58
2022/10/01 01:31:21;;;;;;;29.80;15.35;;;;;;;12.66;90.55;99183.53;5091502;28;20052;-58
2022/10/01 01:33:49;;;;;;;27.75;15.40;;;;;;;12.62;92.36;99185.13;5090006;28;20096;-58
2022/10/01 01:36:24;;;;;;;33.20;15.10;;;;;;;12.56;92.52;99180.00;5090062;28;20052;-59
2022/10/01 01:38:56;;;;;;;25.95;14.63;;;;;;;12.47;93.77;99182.31;5090291;28;20127;-59
2022/10/01 01:41:24;;;;;;;25.50;14.05;;;;;;;12.36;93.90;99189.44;5090235;28;20408;-59
2022/10/01 01:43:52;;;;;;;26.38;14.60;;;;;;;12.26;94.05;99178.72;5091007;28;20051;-59
2022/10/01 01:46:18;;;;;;;31.10;16.48;;;;;;;12.27;95.05;99183.78;5090150;28;20036;-57
2022/10/01 01:48:48;;;;;;;27.92;15.18;;;;;;;12.23;94.97;99176.56;5094459;28;20142;-58
2022/10/01 01:51:23;;;;;;;31.70;16.08;;;;;;;12.30;95.30;99173.72;5094267;28;20036;-58
2022/10/01 01:53:49;;;;;;;29.17;14.68;;;;;;;12.29;94.40;99172.88;5095607;28;20581;-58
2022/10/01 01:56:16;;;;;;;28.83;15.55;;;;;;;12.32;94.08;99163.63;5095091;28;20481;-58
2022/10/01 01:58:42;;;;;;;23.75;14.10;;;;;;;12.27;93.45;99169.72;5077278;28;20559;-58
2022/10/01 02:01:33;;;;;;;30.63;15.02;;;;;;;12.27;93.78;99173.16;5076791;28;20056;-59
2022/10/01 02:04:04;;;;;;;27.67;14.35;;;;;;;12.24;94.18;99168.34;5094914;28;20551;-58
2022/10/01 02:07:08;;;;;;;26.48;15.05;;;;;;;12.23;93.58;99160.63;5094975;28;20048;-58
2022/10/01 02:09:52;;;;;;;26.05;14.07;;;;;;;12.23;93.95;99168.59;5091649;28;20112;-59
2022/10/01 02:12:44;;;;;;;28.90;15.02;;;;;;;12.27;94.11;99162.53;5094725;28;20063;-57
2022/10/01 02:15:22;;;;;;;25.30;13.93;;;;;;;12.31;93.43;99160.16;5093346;28;20048;-59
2022/10/01 02:17:57;;;;;;;30.98;14.50;;;;;;;12.31;93.01;99159.38;5076698;28;20504;-58
2022/10/01 02:20:35;;;;;;;27.88;15.13;;;;;;;12.28;93.48;99158.81;5093322;28;20465;-58
2022/10/01 02:23:14;;;;;;;27.60;14.63;;;;;;;12.31;93.39;99164.69;5093483;28;20078;-58
2022/10/01 02:25:47;;;;;;;25.83;14.27;;;;;;;12.32;93.24;99153.78;5094845;28;20043;-57
2022/10/01 02:28:15;;;;;;;26.48;13.45;;;;;;;12.36;93.15;99154.09;5093467;28;20106;-59
2022/10/01 02:30:43;;;;;;;22.17;13.38;;;;;;;12.36;92.56;99154.09;5093238;28;20097;-58
2022/10/01 02:33:12;;;;;;;24.23;12.93;;;;;;;12.38;92.32;99157.28;5094799;28;20058;-58
2022/10/01 02:35:40;;;;;;;22.58;13.95;;;;;;;12.36;92.56;99149.56;5076072;28;20470;-58
2022/10/01 02:38:06;;;;;;;24.30;13.88;;;;;;;12.38;92.64;99152.78;5094131;28;20428;-59
2022/10/01 02:40:35;;;;;;;22.83;13.63;;;;;;;12.29;92.39;99143.66;5094293;28;20469;-59
2022/10/01 02:43:09;;;;;;;23.63;13.07;;;;;;;12.32;92.42;99145.81;5093084;28;20040;-60
2022/10/01 02:45:36;;;;;;;24.33;13.82;;;;;;;12.34;92.51;99148.22;5093214;28;20454;-58
2022/10/01 02:48:04;;;;;;;25.67;13.68;;;;;;;12.35;92.78;99147.94;5093019;28;20043;-57
2022/10/01 02:50:52;;;;;;;26.00;13.63;;;;;;;12.32;93.29;99143.16;5094100;28;20036;-58
2022/10/01 02:53:26;;;;;;;25.52;13.50;;;;;;;12.36;92.69;99138.16;5093746;28;20473;-58
2022/10/01 02:55:52;;;;;;;29.08;13.82;;;;;;;12.37;92.35;99143.19;5093038;28;20044;-58
2022/10/01 02:58:19;;;;;;;26.38;14.35;;;;;;;12.36;92.34;99138.94;5092695;28;20074;-57
2022/10/01 03:00:44;;;;;;;26.95;13.95;;;;;;;12.35;92.80;99139.97;5091921;28;20164;-59
2022/10/01 03:03:10;;;;;;;28.80;14.73;;;;;;;12.37;92.39;99135.22;5092802;28;20563;-58
2022/10/01 03:05:36;;;;;;;25.02;13.85;;;;;;;12.38;92.81;99136.84;5094242;28;20040;-59
2022/10/01 03:08:01;;;;;;;23.52;13.00;;;;;;;12.36;92.59;99125.66;5094300;28;20381;-59
2022/10/01 03:10:27;;;;;;;24.73;12.70;;;;;;;12.33;92.44;99131.47;5094163;28;20048;-59
2022/10/01 03:12:52;;;;;;;26.02;12.68;;;;;;;12.28;92.91;99129.56;5094250;28;20139;-59
2022/10/01 03:15:19;;;;;;;25.55;14.70;;;;;;;12.30;93.54;99133.84;5094042;28;20036;-60
2022/10/01 03:17:45;;;;;;;26.63;13.95;;;;;;;12.29;93.03;99130.38;5093972;28;20052;-58
2022/10/01 03:20:11;;;;;;;32.83;17.77;;;;;;;12.24;93.42;99122.38;5093846;28;20408;-59
2022/10/01 03:22:37;;;;;;;27.42;15.00;;;;;;;12.21;93.52;99130.88;5094005;28;20048;-58
2022/10/01 03:25:03;;;;;;;25.60;13.45;;;;;;;12.13;93.73;99128.66;5093834;28;20036;-58
2022/10/01 03:27:29;;;;;;;29.13;13.75;;;;;;;12.18;93.78;99118.09;5093872;28;20055;-57
2022/10/01 03:29:55;;;;;;;28.10;13.07;;;;;;;12.21;93.88;99122.88;5092565;28;20032;-59
2022/10/01 03:32:21;;;;;;;24.73;12.65;;;;;;;12.20;94.23;99126.59;5093621;28;20078;-59
2022/10/01 03:34:47;;;;;;;25.60;12.98;;;;;;;12.20;94.20;99123.94;5093427;28;20617;-56
2022/10/01 03:37:13;;;;;;;28.73;14.20;;;;;;;12.23;93.67;99129.53;5093718;28;20051;-58
2022/10/01 03:39:39;;;;;;;22.17;12.45;;;;;;;12.24;93.50;99122.38;5093318;28;20496;-59
2022/10/01 03:42:04;;;;;;;21.63;11.65;;;;;;;12.25;93.46;99126.63;5075456;28;20036;-58
2022/10/01 03:44:31;;;;;;;19.00;11.05;;;;;;;12.27;93.57;99127.19;5093381;28;20047;-59
2022/10/01 03:46:56;;;;;;;22.30;11.63;;;;;;;12.22;92.94;99119.97;5093344;28;20085;-58
2022/10/01 03:49:22;;;;;;;18.90;10.68;;;;;;;12.22;93.04;99122.63;5091923;28;20473;-60
2022/10/01 03:51:48;;;;;;;21.75;11.57;;;;;;;12.23;92.81;99116.25;5093052;28;20134;-58
2022/10/01 03:54:14;;;;;;;21.90;10.90;;;;;;;12.20;93.11;99114.09;5093278;28;20500;-58
2022/10/01 03:56:41;;;;;;;21.35;10.95;;;;;;;12.21;93.12;99112.25;5091745;28;20047;-58
2022/10/01 03:59:08;;;;;;;22.05;11.20;;;;;;;12.25;93.26;99111.47;5092861;28;20583;-59
2022/10/01 04:01:34;;;;;;;19.40;10.77;;;;;;;12.25;93.06;99111.47;5093072;28;20279;-58
2022/10/01 04:04:00;;;;;;;19.83;10.35;;;;;;;12.29;92.98;99119.75;5092694;28;20077;-57
2022/10/01 04:06:25;;;;;;;18.33;9.85;;;;;;;12.28;92.51;99116.28;5091710;28;20040;-59
2022/10/01 04:08:51;;;;;;;20.40;11.10;;;;;;;12.30;92.39;99116.03;5092847;28;20046;-58
2022/10/01 04:11:17;;;;;;;18.92;9.73;;;;;;;12.30;92.77;99116.03;5090666;28;20512;-59
2022/10/01 04:13:42;;;;;;;16.00;9.68;;;;;;;12.31;92.27;99109.66;5057557;28;20040;-57
2022/10/01 04:16:09;;;;;;;20.25;10.77;;;;;;;12.32;92.66;99111.25;5092636;28;20036;-59
2022/10/01 04:18:34;;;;;;;15.75;8.82;;;;;;;12.30;92.27;99109.94;5092470;28;20039;-58
2022/10/01 04:21:00;;;;;;;17.08;9.20;;;;;;;12.30;92.58;99109.94;5092366;28;20058;-58
2022/10/01 04:23:26;;;;;;;14.13;8.20;;;;;;;12.27;92.19;99112.03;5092253;28;20078;-58
2022/10/01 04:25:51;;;;;;;19.42;9.25;;;;;;;12.27;92.20;99112.03;5092441;28;20082;-59
2022/10/01 04:28:18;;;;;;;13.23;8.30;;;;;;;12.26;92.44;99107.78;5092805;28;20052;-58
2022/10/01 04:30:45;;;;;;;14.35;8.48;;;;;;;12.21;92.93;99107.75;5092504;28;20055;-59
2022/10/01 04:33:13;;;;;;;15.05;9.13;;;;;;;12.19;92.33;99109.03;5092593;28;20040;-59
2022/10/01 04:35:38;;;;;;;16.02;8.80;;;;;;;12.23;92.69;99115.44;5092143;28;20066;-58
2022/10/01 04:38:12;;;;;;;16.60;9.32;;;;;;;12.22;92.58;99113.84;5092567;28;20040;-58
2022/10/01 04:40:38;;;;;;;14.13;7.55;;;;;;;12.20;92.53;99111.44;5091170;28;20044;-59
2022/10/01 04:43:07;;;;;;;15.27;8.98;;;;;;;12.19;92.42;99104.53;5092251;28;20056;-59
2022/10/01 04:45:33;;;;;;;15.68;9.32;;;;;;;12.21;93.06;99109.59;5092219;28;20043;-59
2022/10/01 04:47:58;;;;;;;15.80;8.60;;;;;;;12.23;92.57;99108.25;5090955;28;20036;-57
2022/10/01 04:50:25;;;;;;;18.45;9.43;;;;;;;12.21;92.54;99099.78;5091977;28;20036;-58
2022/10/01 04:52:52;;;;;;;14.50;8.65;;;;;;;12.18;92.71;99104.78;5092243;28;20051;-59
2022/10/01 04:55:19;;;;;;;16.10;8.80;;;;;;;12.18;92.56;99102.94;5091957;28;20466;-57
2022/10/01 04:57:44;;;;;;;18.02;8.60;;;;;;;12.14;92.66;99099.16;5092108;28;20166;-58
2022/10/01 05:00:13;;;;;;;13.98;8.25;;;;;;;12.20;92.49;99105.31;5092146;28;20544;-59
2022/10/01 05:02:39;;;;;;;17.00;8.88;;;;;;;12.21;92.67;99096.31;5092000;28;20131;-58
2022/10/01 05:05:06;;;;;;;14.70;9.65;;;;;;;12.19;92.77;99098.41;5091910;28;20564;-59
2022/10/01 05:07:33;;;;;;;13.90;8.93;;;;;;;12.23;92.67;99100.28;5090066;28;20481;-58
2022/10/01 05:09:59;;;;;;;15.18;8.25;;;;;;;12.26;92.76;99101.66;5091494;28;20044;-57
2022/10/01 05:12:26;;;;;;;14.10;8.15;;;;;;;12.30;92.60;99093.97;5091816;28;20151;-59
2022/10/01 05:14:52;;;;;;;12.63;7.50;;;;;;;12.28;92.15;99102.19;5091654;28;20070;-59
2022/10/01 05:17:18;;;;;;;13.98;7.72;;;;;;;12.28;92.53;99113.63;5091838;28;20152;-58
2022/10/01 05:19:45;;;;;;;13.95;8.13;;;;;;;12.26;92.29;99104.31;5090568;28;20044;-59
2022/10/01 05:22:11;;;;;;;12.93;7.97;;;;;;;12.29;92.29;99101.13;5091500;28;20056;-58
2022/10/01 05:24:37;;;;;;;16.35;8.90;;;;;;;12.27;92.60;99098.75;5091651;28;20532;-58
2022/10/01 05:27:03;;;;;;;15.02;8.50;;;;;;;12.31;92.56;99107.00;5073328;28;20454;-60
2022/10/01 05:29:29;;;;;;;12.75;8.68;;;;;;;12.32;92.67;99103.28;5091576;28;20131;-59
2022/10/01 05:31:55;;;;;;;16.17;9.07;;;;;;;12.32;92.64;99105.13;5091561;28;20093;-59
2022/10/01 05:34:20;;;;;;;18.15;8.85;;;;;;;12.28;92.63;99097.69;5090014;28;20055;-59
2022/10/01 05:36:46;;;;;;;20.00;9.75;;;;;;;12.25;92.75;99097.41;5091565;28;20055;-58
2022/10/01 05:39:12;;;;;;;18.27;10.50;;;;;;;12.29;93.53;99101.13;5090041;28;20119;-58
2022/10/01 05:41:39;;;;;;;16.50;9.38;;;;;;;12.36;93.80;99085.00;5091411;28;20130;-58
2022/10/01 05:44:05;;;;;;;28.10;9.73;;;;;;;12.39;92.81;99087.94;5091125;28;20131;-59
2022/10/01 05:46:31;;;;;;;20.63;10.15;;;;;;;12.45;93.46;99086.09;5091262;28;20048;-59
2022/10/01 05:48:57;;;;;;;58.58;11.10;;;;;;;12.50;92.52;99083.47;5091339;28;20042;-59
2022/10/01 05:51:23;;;;;;;29.55;10.15;;;;;;;12.53;92.91;99085.63;5091297;28;20048;-59
2022/10/01 05:53:49;;;;;;;24.33;9.60;;;;;;;12.57;92.58;99077.94;5091429;28;20035;-59
2022/10/01 05:56:14;;;;;;;21.00;10.07;;;;;;;12.59;92.31;99081.94;5090155;28;20513;-59
2022/10/01 05:58:40;;;;;;;27.88;10.95;;;;;;;12.60;92.08;99088.06;5091334;28;20130;-60
2022/10/01 06:01:06;;;;;;;47.65;11.23;;;;;;;12.60;92.26;99078.22;5091417;28;20417;-59
2022/10/01 06:03:32;;;;;;;34.75;10.50;;;;;;;12.60;92.10;99078.22;5091280;28;20050;-59
2022/10/01 06:05:58;;;;;;;40.30;11.85;;;;;;;12.57;92.87;99077.94;5091326;28;20052;-59
2022/10/01 06:08:23;;;;;;;20.90;9.48;;;;;;;12.62;92.66;99075.31;5091315;28;20505;-59
2022/10/01 06:10:49;;;;;;;34.17;10.20;;;;;;;12.64;92.58;99075.81;5091012;28;20568;-59
2022/10/01 06:13:16;;;;;;;104.97;15.98;;;;;;;12.66;92.47;99068.41;5091311;28;20508;-58
2022/10/01 06:15:44;;;;;;;42.50;11.27;;;;;;;12.69;92.36;99065.22;5091275;28;20040;-61
2022/10/01 06:18:11;;;;;;;52.47;12.60;;;;;;;12.79;92.79;99064.47;5089529;28;20085;-58
2022/10/01 06:20:38;;;;;;;26.23;10.65;;;;;;;12.86;91.90;99059.72;5090842;28;20082;-59
2022/10/01 06:23:06;;;;;;;28.13;10.00;;;;;;;12.75;91.29;99050.88;5091017;28;20131;-59
2022/10/01 06:25:33;;;;;;;43.28;10.95;;;;;;;12.86;91.77;99060.50;5090894;28;20040;-59
2022/10/01 06:28:00;;;;;;;21.77;9.85;;;;;;;12.99;92.58;99067.19;5089858;28;20420;-59
2022/10/01 06:30:27;;;;;;;25.77;10.05;;;;;;;13.00;90.83;99058.19;5090869;28;20633;-58
2022/10/01 06:33:00;;;;;;;20.52;9.27;;;;;;;13.04;91.14;99058.44;5091225;28;20123;-59
2022/10/01 06:35:25;;;;;;;29.70;10.38;;;;;;;13.08;90.74;99054.19;5092039;28;20555;-59
2022/10/01 06:37:51;;;;;;;24.17;9.43;;;;;;;13.08;90.52;99055.00;5094845;28;20052;-59
2022/10/01 06:40:17;;;;;;;16.90;8.70;;;;;;;13.19;92.19;99053.16;5093128;28;20180;-59
2022/10/01 06:42:47;;;;;;;38.00;11.45;;;;;;;13.21;91.69;99051.06;5094426;28;20044;-59
2022/10/01 06:45:14;;;;;;;17.42;9.05;;;;;;;13.19;91.49;99047.84;5094621;28;20070;-56
2022/10/01 06:47:40;;;;;;;15.18;7.88;;;;;;;13.14;90.72;99047.81;5093177;28;20421;-59
2022/10/01 06:50:06;;;;;;;13.38;7.10;;;;;;;13.05;91.48;99042.22;5094169;28;20055;-61
2022/10/01 06:52:50;;;;;;;12.13;6.55;;;;;;;13.02;91.90;99047.25;5092808;28;20040;-58
2022/10/01 06:55:21;;;;;;;11.70;6.03;;;;;;;13.01;92.46;99041.16;5094119;28;20046;-58
2022/10/01 06:57:49;;;;;;;15.15;6.82;;;;;;;13.03;91.90;99043.53;5093569;28;20040;-56
2022/10/01 07:00:14;;;;;;;9.20;5.65;;;;;;;13.09;92.23;99042.50;5093114;28;20036;-59
2022/10/01 07:02:40;;;;;;;8.38;5.65;;;;;;;13.14;92.05;99042.50;5092754;28;20051;-60
2022/10/01 07:05:07;;;;;;;10.63;6.47;;;;;;;13.09;91.95;99035.31;5093010;28;20085;-58
2022/10/01 07:07:35;;;;;;;8.88;5.03;;;;;;;13.13;92.32;99038.25;5094020;28;20101;-57
2022/10/01 07:10:04;;;;;;;7.72;5.22;;;;;;;13.16;92.77;99029.75;5094048;28;20040;-56
2022/10/01 07:12:29;;;;;;;8.60;5.63;;;;;;;13.20;92.16;99033.47;5093707;28;20100;-58
2022/10/01 07:14:55;;;;;;;8.60;5.63;;;;;;;13.31;92.47;99023.69;5094173;28;20119;-58
2022/10/01 07:17:22;;;;;;;7.43;4.43;;;;;;;13.26;90.45;99015.69;5094385;28;20538;-57
2022/10/01 07:19:48;;;;;;;7.13;4.68;;;;;;;13.21;89.36;99026.28;5092479;28;20044;-59
2022/10/01 07:22:13;;;;;;;7.90;5.07;;;;;;;13.21;89.91;99021.78;5092457;28;20109;-60
2022/10/01 07:24:39;;;;;;;6.47;4.38;;;;;;;13.22;89.38;99019.91;5093983;28;20093;-57
2022/10/01 07:27:06;;;;;;;5.75;4.18;;;;;;;13.23;89.31;99018.84;5075373;28;20040;-58
2022/10/01 07:29:32;;;;;;;7.57;4.70;;;;;;;13.27;90.30;99020.75;5092809;28;20078;-58
2022/10/01 07:31:58;;;;;;;6.30;4.47;;;;;;;13.29;90.23;99010.63;5094068;28;20084;-57
2022/10/01 07:34:25;;;;;;;8.75;5.32;;;;;;;13.34;89.30;99007.19;5093752;28;20047;-58
2022/10/01 07:36:51;;;;;;;10.15;5.15;;;;;;;13.37;90.53;99010.09;5092224;28;20055;-57
2022/10/01 07:39:17;;;;;;;8.23;5.25;;;;;;;13.32;89.59;99009.28;5092460;28;20075;-59
2022/10/01 07:41:42;;;;;;;8.88;6.07;;;;;;;13.32;89.37;99007.44;5091875;28;20401;-59
2022/10/01 07:44:10;;;;;;;9.05;5.35;;;;;;;13.43;89.65;99010.91;5092206;28;20448;-60
2022/10/01 07:46:37;;;;;;;11.88;5.32;;;;;;;13.47;89.66;99011.19;5091914;28;20052;-60
2022/10/01 07:49:03;;;;;;;15.52;6.47;;;;;;;13.48;89.31;99010.94;5075041;28;20040;-59
2022/10/01 07:51:29;;;;;;;8.73;5.53;;;;;;;13.46;89.62;99007.72;5093220;28;20044;-59
2022/10/01 07:53:54;;;;;;;17.08;7.68;;;;;;;13.53;88.80;98999.47;5091730;28;20515;-59
2022/10/01 07:56:20;;;;;;;17.02;8.20;;;;;;;13.53;88.82;98994.13;5093218;28;20048;-61
2022/10/01 07:58:46;;;;;;;22.42;8.57;;;;;;;13.55;88.51;98987.47;5074624;28;20047;-59
2022/10/01 08:01:12;;;;;;;25.58;9.05;;;;;;;13.66;88.54;98995.47;5093104;28;20040;-60
2022/10/01 08:03:37;;;;;;;25.40;9.85;;;;;;;13.64;88.67;98985.88;5091411;28;20051;-59
2022/10/01 08:06:05;;;;;;;38.83;10.98;;;;;;;13.71;89.03;98987.50;5091499;28;20523;-59
2022/10/01 08:08:31;;;;;;;30.20;9.63;;;;;;;13.80;88.53;98981.34;5092833;28;20036;-59
2022/10/01 08:10:57;;;;;;;49.85;11.15;;;;;;;13.92;89.22;98975.75;5092528;28;20527;-58
2022/10/01 08:13:25;;;;;;;166.10;17.90;;;;;;;13.96;87.75;98960.81;5092725;28;20048;-59
2022/10/01 08:15:53;;;;;;;126.13;16.00;;;;;;;13.99;88.03;98962.13;5092790;28;20036;-59
2022/10/01 08:18:20;;;;;;;34.55;10.65;;;;;;;14.03;88.16;98968.50;5092709;28;20040;-60
2022/10/01 08:20:46;;;;;;;29.80;10.93;;;;;;;14.16;88.94;98962.63;5091018;28;20062;-59
2022/10/01 08:23:13;;;;;;;41.45;11.15;;;;;;;14.22;87.76;98961.53;5074418;28;20040;-59
2022/10/01 08:25:40;;;;;;;64.32;12.73;;;;;;;14.17;87.37;98956.22;5091403;28;20119;-64
2022/10/01 08:28:06;;;;;;;85.53;12.95;;;;;;;14.19;87.91;98962.09;5074292;28;20127;-59
2022/10/01 08:30:32;;;;;;;40.08;11.63;;;;;;;14.33;88.21;98954.31;5092180;28;20040;-60
2022/10/01 08:32:59;;;;;;;100.47;15.32;;;;;;;14.40;87.30;98957.47;5092613;28;20146;-61
2022/10/01 08:35:26;;;;;;;43.47;11.40;;;;;;;14.42;86.49;98954.56;5090848;28;20039;-60
2022/10/01 08:37:52;;;;;;;61.65;13.35;;;;;;;14.45;87.24;98956.69;5092345;28;20435;-59
2022/10/01 08:40:20;;;;;;;54.38;12.73;;;;;;;14.41;87.25;98944.94;5092314;28;20066;-59
2022/10/01 08:42:58;;;;;;;35.17;12.27;;;;;;;14.50;87.86;98953.97;5073803;28;20505;-62
2022/10/01 08:45:28;;;;;;;35.42;13.30;;;;;;;14.55;86.83;98937.97;5074115;28;20043;-59
2022/10/01 08:48:11;;;;;;;69.20;15.77;;;;;;;14.63;86.31;98942.75;5057298;28;20052;-61
2022/10/01 08:50:43;;;;;;;51.28;16.80;;;;;;;14.70;86.42;98937.09;5090715;28;20126;-61
2022/10/01 08:53:24;;;;;;;41.47;14.50;;;;;;;14.76;86.84;98928.00;5092205;28;20052;-59
2022/10/01 08:55:49;;;;;;;;;;;;;;;14.83;86.71;98931.16;5074037;28;20050;-59
2022/10/01 08:58:24;;;;;;;80.88;17.08;;;;;;;14.89;85.80;98921.28;5081473;28;19923;-59
2022/10/01 09:00:51;;;;;;;214.57;25.85;;;;;;;15.01;86.09;98916.38;5089520;28;20040;-59
2022/10/01 09:03:17;;;;;;;47.13;17.13;;;;;;;15.18;86.31;98913.31;5070966;28;20059;-59
2022/10/01 09:05:46;;;;;;;36.70;14.90;;;;;;;15.35;86.48;98911.06;5085771;28;20032;-59
2022/10/01 09:08:19;;;;;;;133.93;20.85;;;;;;;15.42;84.67;98908.84;5088395;28;20048;-60
2022/10/01 09:11:04;;;;;;;73.80;17.83;;;;;;;15.43;85.39;98898.94;5087458;28;20400;-60
2022/10/01 09:13:30;;;;;;;43.70;17.05;;;;;;;15.43;84.28;98897.06;5087015;28;20044;-59
2022/10/01 09:16:15;;;;;;;43.70;18.17;;;;;;;15.43;84.12;98896.28;5085017;28;20089;-60
2022/10/01 09:19:03;;;;;;;57.70;19.20;;;;;;;15.43;84.53;98898.94;5086487;28;20109;-59
2022/10/01 09:21:53;;;;;;;50.80;20.13;;;;;;;15.43;85.63;98889.06;5085076;28;20064;-59
2022/10/01 09:24:22;;;;;;;;;;;;;;;15.50;85.07;98888.75;5069946;28;20044;-58
2022/10/01 09:26:48;;;;;;;59.53;20.30;;;;;;;15.46;84.42;98879.69;5087368;28;19928;-60
2022/10/01 09:29:21;;;;;;;104.43;23.40;;;;;;;15.35;85.07;98881.69;5088990;28;20416;-60
2022/10/01 09:31:48;;;;;;;47.53;20.55;;;;;;;15.35;86.16;98884.34;5084714;28;20075;-62
2022/10/01 09:34:15;;;;;;;84.93;24.65;;;;;;;15.39;85.82;98872.00;5067036;28;20089;-64
2022/10/01 09:37:31;;;;;;;62.45;22.90;;;;;;;15.25;86.57;98871.06;5084065;28;20079;-60
2022/10/01 09:40:44;;;;;;;52.72;22.20;;;;;;;15.26;86.65;98867.31;5085421;28;20431;-61
2022/10/01 09:43:10;;;;;;;48.22;21.02;;;;;;;15.30;86.67;98867.56;5074562;28;20055;-62
2022/10/01 09:45:36;;;;;;;52.70;22.17;;;;;;;15.25;86.20;98846.25;5084176;28;20054;-59
2022/10/01 09:48:19;;;;;;;58.00;23.45;;;;;;;15.28;86.83;98856.38;5086638;28;20414;-61
2022/10/01 09:50:57;;;;;;;63.00;24.27;;;;;;;15.33;86.99;98849.09;5085202;28;20798;-61
2022/10/01 09:53:31;;;;;;;55.03;23.85;;;;;;;15.36;86.86;98851.22;5086992;28;20047;-60
2022/10/01 09:56:25;;;;;;;63.42;27.27;;;;;;;15.42;86.74;98846.63;5069128;28;20048;-61
2022/10/01 09:58:53;;;;;;;55.42;26.30;;;;;;;15.49;86.68;98840.94;5086274;28;20043;-61
2022/10/01 10:01:52;;;;;;;56.78;28.85;;;;;;;15.56;86.62;98838.72;5068030;28;20048;-61
2022/10/01 10:04:22;;;;;;;63.72;34.25;;;;;;;15.61;86.33;98839.47;5015038;28;20500;-61
2022/10/01 10:06:48;;;;;;;61.03;33.63;;;;;;;15.67;86.27;98824.19;5067891;28;20500;-59
2022/10/01 10:09:16;;;;;;;51.53;28.20;;;;;;;15.74;85.53;98830.03;5089634;28;20508;-59
2022/10/01 10:11:43;;;;;;;53.38;28.00;;;;;;;15.76;85.53;98827.84;5089208;28;20089;-60
2022/10/01 10:14:19;;;;;;;49.08;26.42;;;;;;;15.82;85.01;98825.91;5089506;28;20047;-58
2022/10/01 10:16:46;;;;;;;49.53;26.48;;;;;;;15.83;84.67;98814.94;5091138;28;20078;-59
2022/10/01 10:19:27;;;;;;;50.20;27.67;;;;;;;15.83;84.85;98822.19;5091529;28;20516;-60
2022/10/01 10:21:58;;;;;;;72.28;40.28;;;;;;;15.79;84.42;98821.94;5091931;28;20075;-59
2022/10/01 10:24:32;;;;;;;56.38;33.28;;;;;;;15.74;84.95;98810.53;5091439;28;20505;-59
2022/10/01 10:27:00;;;;;;;62.97;31.63;;;;;;;15.64;85.14;98798.81;5091287;28;20059;-58
2022/10/01 10:29:34;;;;;;;55.45;29.35;;;;;;;15.63;85.52;98807.94;5089645;28;20408;-60
2022/10/01 10:32:18;;;;;;;62.17;31.10;;;;;;;15.60;85.57;98802.34;5088260;28;20465;-60
2022/10/01 10:34:47;;;;;;;57.70;29.92;;;;;;;15.56;85.75;98804.00;5088495;28;20044;-60
2022/10/01 10:37:15;;;;;;;62.03;30.40;;;;;;;15.50;85.86;98803.28;5089010;28;20048;-58
2022/10/01 10:39:46;;;;;;;57.88;28.25;;;;;;;15.46;86.06;98788.88;5088286;28;20047;-57
2022/10/01 10:42:14;;;;;;;;;;;;;;;15.40;86.14;98800.69;5089993;28;20044;-58
2022/10/01 10:44:42;;;;;;;50.95;26.38;;;;;;;15.38;86.24;98802.84;5071478;28;19927;-58
2022/10/01 10:47:10;;;;;;;47.83;26.02;;;;;;;15.34;86.65;98793.81;5089035;28;20047;-58
2022/10/01 10:49:42;;;;;;;56.90;27.63;;;;;;;15.29;86.91;98783.97;5089238;28;20036;-59
2022/10/01 10:52:22;;;;;;;50.67;26.83;;;;;;;15.28;87.34;98786.94;5090371;28;20048;-57
2022/10/01 10:54:50;;;;;;;46.63;24.92;;;;;;;15.28;87.36;98778.94;5089498;28;20048;-60
2022/10/01 10:57:30;;;;;;;52.15;26.42;;;;;;;15.32;87.53;98771.94;5096004;28;20078;-59
2022/10/01 11:00:17;;;;;;;51.28;26.30;;;;;;;15.33;87.70;98774.34;5099936;28;20118;-58
2022/10/01 11:02:56;;;;;;;53.40;26.35;;;;;;;15.30;87.70;98769.56;5106043;28;20368;-60
2022/10/01 11:05:30;;;;;;;51.72;26.10;;;;;;;15.30;87.94;98768.78;5110785;28;20109;-60
2022/10/01 11:08:00;;;;;;;51.47;24.30;;;;;;;15.23;88.02;98763.75;5108252;28;20043;-59
2022/10/01 11:10:28;;;;;;;48.22;25.83;;;;;;;15.24;88.74;98770.69;5107829;28;20547;-60
2022/10/01 11:12:59;;;;;;;49.65;26.23;;;;;;;15.28;88.16;98765.59;5108032;28;20059;-59
2022/10/01 11:15:51;;;;;;;48.28;25.63;;;;;;;15.28;88.49;98763.72;5109446;28;20036;-61
2022/10/01 11:18:16;;;;;;;53.67;26.67;;;;;;;15.30;88.62;98764.22;5108737;28;20324;-60
2022/10/01 11:20:55;;;;;;;49.17;26.65;;;;;;;15.31;89.37;98765.00;5108879;28;20499;-58
2022/10/01 11:23:36;;;;;;;53.72;26.55;;;;;;;15.25;92.05;98755.47;5109552;28;20039;-57
2022/10/01 11:26:57;;;;;;;51.45;25.80;;;;;;;15.21;92.08;98756.03;5091482;28;20054;-59
2022/10/01 11:29:39;;;;;;;;;;;;;;;15.23;91.95;98753.06;5108962;28;20401;-56
2022/10/01 11:32:39;;;;;;;53.10;26.77;;;;;;;15.26;92.53;98749.84;5090559;28;20416;-59
2022/10/01 11:35:11;;;;;;;52.38;24.95;;;;;;;15.24;90.65;98745.88;5108796;28;20051;-57